Aérodrome :
LOGIN :

S'inscrire | Disclaimer

   EN    FR    IT 

 










Légende :    VFR   VFR Marginal   IFR   IFR Intensif   IFR Très Intensif
Visi : 
Plafond : 
>= 8 km
>= 3000ft
5 à 8 km
1000 à 3000 ft
1500m à 5 km
500 à 1000 ft
800 à 1500m
200 à 500 ft
< 800m
< 200 ft
Symboles :   Orages  Brouillard  Fortes neiges  Fortes précipitations  Vent > 20 kt
SIGMETs :   Divers  Orages  Givrage  Turbulence  Onde Orograph.  Cendres Volcan.







- Altitude de l'aérodrome : 137 ft
- Code IATA : ARN


ESSA - Stockholm-Arlanda

DERNIER METAR :
  • 190850Z 24011KT 9999 BKN010 OVC015 05/04 Q0998 R01L/19//95 R08/19//95 R01R/19//95 BECMG BKN020

METARs EXPIRÉS :
  • 190820Z 23009KT 7000 SCT006 BKN008 OVC016 05/04 Q0999 R01L/19//95 R08/19//95 R01R/19//95 BECMG BKN020
  • 190750Z 22007KT 6000 BKN007 05/04 Q0999 R01L/19//95 R08/19//95 R01R/19//95 BECMG BKN020
  • 190720Z 22008KT 6000 SCT007 BKN025 05/04 Q0999 R01L/19//95 R08/19//95 R01R/19//95 BECMG BKN020
  • 190650Z 24009KT 7000 SCT007 OVC024 05/04 Q0999 R01L/19//95 R08/19//95 R01R/19//95 NOSIG
  • 190620Z 21010KT 6000 BKN007 05/04 Q1000 R01L/19//95 R08/19//95 R01R/19//95 NOSIG

TAF AMD TAF ESSA
Valide du 19 à 08h jusqu'au 20 à 06h UTC


190823Z 1908/2006 23010KT 9999 BKN007
BECMG 1909/1911 BKN020
PROB40 1911/1913 BKN014
BECMG 2003/2005 30010KT
Pas de NOTAMs connus pour ce terrain.



MET'MAP, la Météo Aéronautique d'un coup d'oeil ! - Copyright ORBIFLY Décembre 2007 - Disclaimer

ORBIFLY MET'MAP TEAM :

Programmation & Développement : Alexandra Zaïnal
Conception & Développement : Baudouin d'Aumeries
Co-Programmation & Développement : Marc-Olivier Méhu
Soutien technique & logistique : Manuel Goepfert

Contact : metmap@orbifly.com




SOURCES & CREDITS :

   NOAA